sensor_id;sensor_type;location;lat;lon;timestamp;P1;durP1;ratioP1;P2;durP2;ratioP2
73534;SDS011;61792;41.110;16.708;2022-07-10T00:01:46;6.00;;;1.90;;
73534;SDS011;61792;41.110;16.708;2022-07-10T00:04:49;6.78;;;2.58;;
73534;SDS011;61792;41.110;16.708;2022-07-10T00:07:53;5.53;;;1.80;;
73534;SDS011;61792;41.110;16.708;2022-07-10T00:10:57;6.88;;;1.77;;
73534;SDS011;61792;41.110;16.708;2022-07-10T00:14:01;8.05;;;1.65;;
73534;SDS011;61792;41.110;16.708;2022-07-10T00:17:05;7.60;;;1.80;;
73534;SDS011;61792;41.110;16.708;2022-07-10T00:20:09;5.95;;;1.90;;
73534;SDS011;61792;41.110;16.708;2022-07-10T00:23:13;7.13;;;2.28;;
73534;SDS011;61792;41.110;16.708;2022-07-10T00:26:17;5.35;;;1.90;;
73534;SDS011;61792;41.110;16.708;2022-07-10T00:29:21;8.30;;;2.40;;
73534;SDS011;61792;41.110;16.708;2022-07-10T00:32:25;6.83;;;1.87;;
73534;SDS011;61792;41.110;16.708;2022-07-10T00:35:29;4.63;;;1.40;;
73534;SDS011;61792;41.110;16.708;2022-07-10T00:38:33;5.32;;;1.80;;
73534;SDS011;61792;41.110;16.708;2022-07-10T00:41:37;7.07;;;1.83;;
73534;SDS011;61792;41.110;16.708;2022-07-10T00:44:41;4.95;;;1.73;;
73534;SDS011;61792;41.110;16.708;2022-07-10T00:47:46;6.00;;;1.77;;
73534;SDS011;61792;41.110;16.708;2022-07-10T00:50:51;6.20;;;2.28;;
73534;SDS011;61792;41.110;16.708;2022-07-10T00:53:55;4.85;;;1.48;;
73534;SDS011;61792;41.110;16.708;2022-07-10T00:57:00;7.30;;;1.60;;
73534;SDS011;61792;41.110;16.708;2022-07-10T01:00:07;6.28;;;2.00;;
73534;SDS011;61792;41.110;16.708;2022-07-10T01:03:14;5.60;;;1.80;;
73534;SDS011;61792;41.110;16.708;2022-07-10T01:06:18;7.70;;;2.00;;
73534;SDS011;61792;41.110;16.708;2022-07-10T01:09:21;5.70;;;1.65;;
73534;SDS011;61792;41.110;16.708;2022-07-10T01:12:27;4.55;;;1.65;;
73534;SDS011;61792;41.110;16.708;2022-07-10T01:15:31;5.30;;;1.55;;
73534;SDS011;61792;41.110;16.708;2022-07-10T01:18:36;5.33;;;1.70;;
73534;SDS011;61792;41.110;16.708;2022-07-10T01:21:40;4.78;;;2.00;;
73534;SDS011;61792;41.110;16.708;2022-07-10T01:24:44;5.45;;;1.50;;
73534;SDS011;61792;41.110;16.708;2022-07-10T01:27:48;5.88;;;1.67;;
73534;SDS011;61792;41.110;16.708;2022-07-10T01:30:54;6.53;;;2.10;;
73534;SDS011;61792;41.110;16.708;2022-07-10T01:33:59;4.87;;;1.70;;
73534;SDS011;61792;41.110;16.708;2022-07-10T01:37:05;10.10;;;2.70;;
73534;SDS011;61792;41.110;16.708;2022-07-10T01:40:08;5.13;;;1.67;;
73534;SDS011;61792;41.110;16.708;2022-07-10T01:43:13;5.85;;;1.58;;
73534;SDS011;61792;41.110;16.708;2022-07-10T01:46:17;7.00;;;1.63;;
73534;SDS011;61792;41.110;16.708;2022-07-10T01:49:21;5.50;;;1.63;;
73534;SDS011;61792;41.110;16.708;2022-07-10T01:52:25;5.68;;;1.98;;
73534;SDS011;61792;41.110;16.708;2022-07-10T01:55:29;5.15;;;2.03;;
73534;SDS011;61792;41.110;16.708;2022-07-10T01:58:33;5.35;;;1.70;;
73534;SDS011;61792;41.110;16.708;2022-07-10T02:01:38;5.95;;;1.70;;
73534;SDS011;61792;41.110;16.708;2022-07-10T02:04:41;6.37;;;1.70;;
73534;SDS011;61792;41.110;16.708;2022-07-10T02:07:46;4.88;;;1.38;;
73534;SDS011;61792;41.110;16.708;2022-07-10T02:10:49;5.97;;;1.70;;
73534;SDS011;61792;41.110;16.708;2022-07-10T02:13:53;5.53;;;1.80;;
73534;SDS011;61792;41.110;16.708;2022-07-10T02:16:57;4.35;;;1.42;;
73534;SDS011;61792;41.110;16.708;2022-07-10T02:20:01;6.90;;;1.47;;
73534;SDS011;61792;41.110;16.708;2022-07-10T02:23:05;5.15;;;1.77;;
73534;SDS011;61792;41.110;16.708;2022-07-10T02:26:10;10.23;;;1.80;;
73534;SDS011;61792;41.110;16.708;2022-07-10T02:29:14;4.65;;;1.55;;
73534;SDS011;61792;41.110;16.708;2022-07-10T02:32:18;6.00;;;2.00;;
73534;SDS011;61792;41.110;16.708;2022-07-10T02:35:22;6.20;;;1.60;;
73534;SDS011;61792;41.110;16.708;2022-07-10T02:38:27;4.25;;;1.60;;
73534;SDS011;61792;41.110;16.708;2022-07-10T02:41:31;7.20;;;1.65;;
73534;SDS011;61792;41.110;16.708;2022-07-10T02:44:35;4.78;;;1.60;;
73534;SDS011;61792;41.110;16.708;2022-07-10T02:47:39;4.57;;;1.48;;
73534;SDS011;61792;41.110;16.708;2022-07-10T02:50:42;7.17;;;1.73;;
73534;SDS011;61792;41.110;16.708;2022-07-10T02:53:46;6.20;;;1.77;;
73534;SDS011;61792;41.110;16.708;2022-07-10T02:56:50;7.20;;;1.80;;
73534;SDS011;61792;41.110;16.708;2022-07-10T02:59:54;3.85;;;1.38;;
73534;SDS011;61792;41.110;16.708;2022-07-10T03:02:58;7.40;;;2.05;;
73534;SDS011;61792;41.110;16.708;2022-07-10T03:06:02;6.43;;;1.67;;
73534;SDS011;61792;41.110;16.708;2022-07-10T03:09:05;6.43;;;1.60;;
73534;SDS011;61792;41.110;16.708;2022-07-10T03:12:09;5.78;;;1.45;;
73534;SDS011;61792;41.110;16.708;2022-07-10T03:15:13;6.53;;;1.80;;
73534;SDS011;61792;41.110;16.708;2022-07-10T03:18:17;7.63;;;2.15;;
73534;SDS011;61792;41.110;16.708;2022-07-10T03:21:21;5.33;;;1.60;;
73534;SDS011;61792;41.110;16.708;2022-07-10T03:24:24;6.35;;;1.73;;
73534;SDS011;61792;41.110;16.708;2022-07-10T03:27:28;5.03;;;1.80;;
73534;SDS011;61792;41.110;16.708;2022-07-10T03:30:32;5.78;;;1.60;;
73534;SDS011;61792;41.110;16.708;2022-07-10T03:33:36;5.50;;;1.65;;
73534;SDS011;61792;41.110;16.708;2022-07-10T03:36:40;7.17;;;1.53;;
73534;SDS011;61792;41.110;16.708;2022-07-10T03:39:43;6.22;;;1.45;;
73534;SDS011;61792;41.110;16.708;2022-07-10T03:42:47;8.48;;;1.60;;
73534;SDS011;61792;41.110;16.708;2022-07-10T03:45:51;5.90;;;1.63;;
73534;SDS011;61792;41.110;16.708;2022-07-10T03:48:55;7.95;;;1.95;;
73534;SDS011;61792;41.110;16.708;2022-07-10T03:51:59;4.17;;;1.50;;
73534;SDS011;61792;41.110;16.708;2022-07-10T03:55:04;3.97;;;1.60;;
73534;SDS011;61792;41.110;16.708;2022-07-10T03:58:08;6.10;;;1.95;;
73534;SDS011;61792;41.110;16.708;2022-07-10T04:01:12;6.80;;;1.60;;
73534;SDS011;61792;41.110;16.708;2022-07-10T04:04:16;5.55;;;2.10;;
73534;SDS011;61792;41.110;16.708;2022-07-10T04:07:20;8.00;;;1.90;;
73534;SDS011;61792;41.110;16.708;2022-07-10T04:10:24;8.82;;;2.10;;
73534;SDS011;61792;41.110;16.708;2022-07-10T04:13:29;5.43;;;1.83;;
73534;SDS011;61792;41.110;16.708;2022-07-10T04:16:33;6.28;;;1.90;;
73534;SDS011;61792;41.110;16.708;2022-07-10T04:19:36;6.05;;;1.77;;
73534;SDS011;61792;41.110;16.708;2022-07-10T04:22:40;4.93;;;2.00;;
73534;SDS011;61792;41.110;16.708;2022-07-10T04:25:44;7.22;;;1.92;;
73534;SDS011;61792;41.110;16.708;2022-07-10T04:28:48;8.10;;;1.88;;
73534;SDS011;61792;41.110;16.708;2022-07-10T04:31:52;6.32;;;2.00;;
73534;SDS011;61792;41.110;16.708;2022-07-10T04:34:56;6.65;;;2.17;;
73534;SDS011;61792;41.110;16.708;2022-07-10T04:38:00;5.73;;;2.20;;
73534;SDS011;61792;41.110;16.708;2022-07-10T04:41:04;9.43;;;2.20;;
73534;SDS011;61792;41.110;16.708;2022-07-10T04:44:09;7.28;;;2.22;;
73534;SDS011;61792;41.110;16.708;2022-07-10T04:47:12;6.50;;;2.33;;
73534;SDS011;61792;41.110;16.708;2022-07-10T04:50:16;6.55;;;2.10;;
73534;SDS011;61792;41.110;16.708;2022-07-10T04:53:20;5.83;;;2.47;;
73534;SDS011;61792;41.110;16.708;2022-07-10T04:56:24;5.18;;;1.95;;
73534;SDS011;61792;41.110;16.708;2022-07-10T04:59:28;7.28;;;2.33;;
73534;SDS011;61792;41.110;16.708;2022-07-10T05:02:32;6.60;;;2.53;;
73534;SDS011;61792;41.110;16.708;2022-07-10T05:05:36;5.78;;;2.67;;
73534;SDS011;61792;41.110;16.708;2022-07-10T05:08:40;6.43;;;2.60;;
73534;SDS011;61792;41.110;16.708;2022-07-10T05:11:44;8.30;;;3.22;;
73534;SDS011;61792;41.110;16.708;2022-07-10T05:14:48;7.32;;;3.45;;
73534;SDS011;61792;41.110;16.708;2022-07-10T05:17:51;9.75;;;3.50;;
73534;SDS011;61792;41.110;16.708;2022-07-10T05:20:55;7.40;;;3.72;;
73534;SDS011;61792;41.110;16.708;2022-07-10T05:23:59;10.60;;;4.57;;
73534;SDS011;61792;41.110;16.708;2022-07-10T05:27:03;9.02;;;3.50;;
73534;SDS011;61792;41.110;16.708;2022-07-10T05:30:07;7.97;;;3.33;;
73534;SDS011;61792;41.110;16.708;2022-07-10T05:33:11;9.50;;;3.53;;
73534;SDS011;61792;41.110;16.708;2022-07-10T05:36:15;9.30;;;3.50;;
73534;SDS011;61792;41.110;16.708;2022-07-10T05:39:19;8.80;;;3.60;;
73534;SDS011;61792;41.110;16.708;2022-07-10T05:42:23;8.57;;;3.90;;
73534;SDS011;61792;41.110;16.708;2022-07-10T05:45:26;7.70;;;3.30;;
73534;SDS011;61792;41.110;16.708;2022-07-10T05:48:31;9.20;;;3.60;;
73534;SDS011;61792;41.110;16.708;2022-07-10T05:51:35;6.07;;;3.10;;
73534;SDS011;61792;41.110;16.708;2022-07-10T05:54:39;5.97;;;3.00;;
73534;SDS011;61792;41.110;16.708;2022-07-10T05:57:43;6.15;;;2.95;;
73534;SDS011;61792;41.110;16.708;2022-07-10T06:00:46;6.45;;;3.33;;
73534;SDS011;61792;41.110;16.708;2022-07-10T06:03:52;5.82;;;2.97;;
73534;SDS011;61792;41.110;16.708;2022-07-10T06:06:56;6.00;;;2.70;;
73534;SDS011;61792;41.110;16.708;2022-07-10T06:10:01;4.87;;;2.90;;
73534;SDS011;61792;41.110;16.708;2022-07-10T06:13:06;6.80;;;2.88;;
73534;SDS011;61792;41.110;16.708;2022-07-10T06:16:10;6.55;;;3.13;;
73534;SDS011;61792;41.110;16.708;2022-07-10T06:19:14;5.70;;;3.03;;
73534;SDS011;61792;41.110;16.708;2022-07-10T06:22:20;6.70;;;3.35;;
73534;SDS011;61792;41.110;16.708;2022-07-10T06:25:36;8.53;;;3.80;;
73534;SDS011;61792;41.110;16.708;2022-07-10T06:28:40;7.88;;;3.85;;
73534;SDS011;61792;41.110;16.708;2022-07-10T06:31:44;6.00;;;3.65;;
73534;SDS011;61792;41.110;16.708;2022-07-10T06:34:48;5.82;;;3.22;;
73534;SDS011;61792;41.110;16.708;2022-07-10T06:37:52;7.95;;;3.65;;
73534;SDS011;61792;41.110;16.708;2022-07-10T06:40:55;8.70;;;3.43;;
73534;SDS011;61792;41.110;16.708;2022-07-10T06:43:59;6.88;;;3.80;;
73534;SDS011;61792;41.110;16.708;2022-07-10T06:47:04;5.93;;;3.72;;
73534;SDS011;61792;41.110;16.708;2022-07-10T06:50:29;5.50;;;3.50;;
73534;SDS011;61792;41.110;16.708;2022-07-10T06:53:38;7.82;;;3.92;;
73534;SDS011;61792;41.110;16.708;2022-07-10T06:56:41;5.33;;;3.50;;
73534;SDS011;61792;41.110;16.708;2022-07-10T06:59:45;6.10;;;3.30;;
73534;SDS011;61792;41.110;16.708;2022-07-10T07:02:49;8.00;;;3.70;;
73534;SDS011;61792;41.110;16.708;2022-07-10T07:05:53;6.50;;;3.30;;
73534;SDS011;61792;41.110;16.708;2022-07-10T07:08:57;6.63;;;3.53;;
73534;SDS011;61792;41.110;16.708;2022-07-10T07:12:01;6.77;;;3.60;;
73534;SDS011;61792;41.110;16.708;2022-07-10T07:15:05;5.90;;;3.58;;
73534;SDS011;61792;41.110;16.708;2022-07-10T07:18:10;6.97;;;3.90;;
73534;SDS011;61792;41.110;16.708;2022-07-10T07:21:19;5.18;;;3.40;;
73534;SDS011;61792;41.110;16.708;2022-07-10T07:24:41;6.07;;;3.67;;
73534;SDS011;61792;41.110;16.708;2022-07-10T07:27:46;6.80;;;3.53;;
73534;SDS011;61792;41.110;16.708;2022-07-10T07:30:50;5.95;;;3.25;;
73534;SDS011;61792;41.110;16.708;2022-07-10T07:33:55;5.78;;;3.30;;
73534;SDS011;61792;41.110;16.708;2022-07-10T07:36:58;5.75;;;3.80;;
73534;SDS011;61792;41.110;16.708;2022-07-10T07:40:02;5.80;;;3.80;;
73534;SDS011;61792;41.110;16.708;2022-07-10T07:43:10;6.93;;;3.83;;
73534;SDS011;61792;41.110;16.708;2022-07-10T07:46:15;7.43;;;3.85;;
73534;SDS011;61792;41.110;16.708;2022-07-10T07:49:18;5.93;;;3.50;;
73534;SDS011;61792;41.110;16.708;2022-07-10T07:52:22;7.25;;;3.97;;
73534;SDS011;61792;41.110;16.708;2022-07-10T07:55:26;4.85;;;3.30;;
73534;SDS011;61792;41.110;16.708;2022-07-10T07:58:31;6.40;;;2.93;;
73534;SDS011;61792;41.110;16.708;2022-07-10T08:01:34;5.88;;;3.10;;
73534;SDS011;61792;41.110;16.708;2022-07-10T08:04:38;9.68;;;3.20;;
73534;SDS011;61792;41.110;16.708;2022-07-10T08:07:43;6.07;;;3.10;;
73534;SDS011;61792;41.110;16.708;2022-07-10T08:10:48;8.93;;;3.63;;
73534;SDS011;61792;41.110;16.708;2022-07-10T08:13:52;7.50;;;2.80;;
73534;SDS011;61792;41.110;16.708;2022-07-10T08:16:56;5.60;;;3.05;;
73534;SDS011;61792;41.110;16.708;2022-07-10T08:20:00;6.88;;;3.00;;
73534;SDS011;61792;41.110;16.708;2022-07-10T08:23:04;6.70;;;2.90;;
73534;SDS011;61792;41.110;16.708;2022-07-10T08:26:08;8.23;;;2.92;;
73534;SDS011;61792;41.110;16.708;2022-07-10T08:29:11;5.73;;;3.00;;
73534;SDS011;61792;41.110;16.708;2022-07-10T08:32:16;4.97;;;2.83;;
73534;SDS011;61792;41.110;16.708;2022-07-10T08:35:20;6.35;;;2.80;;
73534;SDS011;61792;41.110;16.708;2022-07-10T08:38:24;6.38;;;3.03;;
73534;SDS011;61792;41.110;16.708;2022-07-10T08:41:28;4.28;;;2.53;;
73534;SDS011;61792;41.110;16.708;2022-07-10T08:44:34;6.30;;;2.30;;
73534;SDS011;61792;41.110;16.708;2022-07-10T08:47:39;4.65;;;2.95;;
73534;SDS011;61792;41.110;16.708;2022-07-10T08:50:45;4.43;;;2.63;;
73534;SDS011;61792;41.110;16.708;2022-07-10T08:53:51;5.68;;;2.40;;
73534;SDS011;61792;41.110;16.708;2022-07-10T08:56:56;4.45;;;2.55;;
73534;SDS011;61792;41.110;16.708;2022-07-10T09:00:01;7.27;;;2.70;;
73534;SDS011;61792;41.110;16.708;2022-07-10T09:03:05;5.07;;;3.05;;
73534;SDS011;61792;41.110;16.708;2022-07-10T09:06:09;4.15;;;2.60;;
73534;SDS011;61792;41.110;16.708;2022-07-10T09:09:15;5.47;;;2.55;;
73534;SDS011;61792;41.110;16.708;2022-07-10T09:12:19;6.20;;;2.90;;
73534;SDS011;61792;41.110;16.708;2022-07-10T09:15:28;7.43;;;2.90;;
73534;SDS011;61792;41.110;16.708;2022-07-10T09:18:35;5.47;;;2.88;;
73534;SDS011;61792;41.110;16.708;2022-07-10T09:21:39;5.22;;;2.22;;
73534;SDS011;61792;41.110;16.708;2022-07-10T09:24:44;4.95;;;2.45;;
73534;SDS011;61792;41.110;16.708;2022-07-10T09:27:53;5.80;;;2.78;;
73534;SDS011;61792;41.110;16.708;2022-07-10T09:30:57;4.33;;;2.40;;
73534;SDS011;61792;41.110;16.708;2022-07-10T09:34:02;5.20;;;3.10;;
73534;SDS011;61792;41.110;16.708;2022-07-10T09:37:25;6.47;;;2.67;;
73534;SDS011;61792;41.110;16.708;2022-07-10T09:40:32;4.53;;;2.55;;
73534;SDS011;61792;41.110;16.708;2022-07-10T09:46:57;5.23;;;2.70;;
73534;SDS011;61792;41.110;16.708;2022-07-10T09:50:00;4.30;;;2.67;;
73534;SDS011;61792;41.110;16.708;2022-07-10T09:53:07;5.70;;;3.00;;
73534;SDS011;61792;41.110;16.708;2022-07-10T09:56:15;5.28;;;2.55;;
73534;SDS011;61792;41.110;16.708;2022-07-10T09:59:20;4.85;;;2.90;;
73534;SDS011;61792;41.110;16.708;2022-07-10T10:02:24;3.97;;;2.60;;
73534;SDS011;61792;41.110;16.708;2022-07-10T10:05:36;3.97;;;2.70;;
73534;SDS011;61792;41.110;16.708;2022-07-10T10:12:39;4.47;;;2.80;;
73534;SDS011;61792;41.110;16.708;2022-07-10T10:15:50;4.53;;;2.42;;
73534;SDS011;61792;41.110;16.708;2022-07-10T10:18:55;4.80;;;2.43;;
73534;SDS011;61792;41.110;16.708;2022-07-10T10:22:17;4.50;;;2.63;;
73534;SDS011;61792;41.110;16.708;2022-07-10T10:25:25;5.40;;;2.60;;
73534;SDS011;61792;41.110;16.708;2022-07-10T10:28:31;5.43;;;2.63;;
73534;SDS011;61792;41.110;16.708;2022-07-10T10:31:36;4.22;;;2.55;;
73534;SDS011;61792;41.110;16.708;2022-07-10T10:34:42;6.40;;;2.50;;
73534;SDS011;61792;41.110;16.708;2022-07-10T10:37:50;5.70;;;2.80;;
73534;SDS011;61792;41.110;16.708;2022-07-10T10:40:54;4.18;;;2.08;;
73534;SDS011;61792;41.110;16.708;2022-07-10T10:44:40;5.85;;;3.70;;
73534;SDS011;61792;41.110;16.708;2022-07-10T10:48:00;5.13;;;2.90;;
73534;SDS011;61792;41.110;16.708;2022-07-10T10:51:05;5.03;;;2.67;;
73534;SDS011;61792;41.110;16.708;2022-07-10T10:54:09;4.55;;;2.95;;
73534;SDS011;61792;41.110;16.708;2022-07-10T11:00:30;5.40;;;2.72;;
73534;SDS011;61792;41.110;16.708;2022-07-10T11:04:45;4.85;;;2.38;;
73534;SDS011;61792;41.110;16.708;2022-07-10T11:11:02;5.00;;;2.05;;
73534;SDS011;61792;41.110;16.708;2022-07-10T11:17:51;5.60;;;2.65;;
73534;SDS011;61792;41.110;16.708;2022-07-10T11:20:56;5.22;;;2.22;;
73534;SDS011;61792;41.110;16.708;2022-07-10T11:24:05;4.30;;;2.77;;
73534;SDS011;61792;41.110;16.708;2022-07-10T11:30:51;4.80;;;2.03;;
73534;SDS011;61792;41.110;16.708;2022-07-10T11:33:56;5.47;;;2.63;;
73534;SDS011;61792;41.110;16.708;2022-07-10T11:37:00;3.95;;;2.13;;
73534;SDS011;61792;41.110;16.708;2022-07-10T11:40:07;5.17;;;2.70;;
73534;SDS011;61792;41.110;16.708;2022-07-10T11:43:15;5.55;;;3.45;;
73534;SDS011;61792;41.110;16.708;2022-07-10T11:46:21;5.07;;;2.33;;
73534;SDS011;61792;41.110;16.708;2022-07-10T11:49:27;5.20;;;2.35;;
73534;SDS011;61792;41.110;16.708;2022-07-10T11:52:35;4.65;;;2.10;;
73534;SDS011;61792;41.110;16.708;2022-07-10T11:55:39;5.27;;;2.10;;
73534;SDS011;61792;41.110;16.708;2022-07-10T11:59:02;4.90;;;2.70;;
73534;SDS011;61792;41.110;16.708;2022-07-10T12:02:07;4.70;;;2.30;;
73534;SDS011;61792;41.110;16.708;2022-07-10T12:05:29;4.65;;;1.90;;
73534;SDS011;61792;41.110;16.708;2022-07-10T12:08:46;3.72;;;2.00;;
73534;SDS011;61792;41.110;16.708;2022-07-10T12:15:06;7.93;;;2.72;;
73534;SDS011;61792;41.110;16.708;2022-07-10T12:18:18;4.43;;;2.75;;
73534;SDS011;61792;41.110;16.708;2022-07-10T12:21:24;3.53;;;2.28;;
73534;SDS011;61792;41.110;16.708;2022-07-10T12:24:28;5.18;;;2.28;;
73534;SDS011;61792;41.110;16.708;2022-07-10T12:27:38;6.00;;;1.93;;
73534;SDS011;61792;41.110;16.708;2022-07-10T12:30:43;4.93;;;2.35;;
73534;SDS011;61792;41.110;16.708;2022-07-10T12:33:58;3.80;;;2.30;;
73534;SDS011;61792;41.110;16.708;2022-07-10T12:37:10;4.03;;;1.83;;
73534;SDS011;61792;41.110;16.708;2022-07-10T12:40:34;5.55;;;2.72;;
73534;SDS011;61792;41.110;16.708;2022-07-10T12:43:39;4.60;;;2.47;;
73534;SDS011;61792;41.110;16.708;2022-07-10T12:46:44;4.65;;;2.40;;
73534;SDS011;61792;41.110;16.708;2022-07-10T12:49:48;3.85;;;2.58;;
73534;SDS011;61792;41.110;16.708;2022-07-10T12:53:09;4.03;;;1.90;;
73534;SDS011;61792;41.110;16.708;2022-07-10T12:59:37;4.00;;;2.50;;
73534;SDS011;61792;41.110;16.708;2022-07-10T13:02:41;4.60;;;2.50;;
73534;SDS011;61792;41.110;16.708;2022-07-10T13:05:45;5.43;;;2.13;;
73534;SDS011;61792;41.110;16.708;2022-07-10T13:08:49;4.55;;;1.85;;
73534;SDS011;61792;41.110;16.708;2022-07-10T13:11:54;4.63;;;2.78;;
73534;SDS011;61792;41.110;16.708;2022-07-10T13:14:58;4.53;;;2.67;;
73534;SDS011;61792;41.110;16.708;2022-07-10T13:18:02;5.32;;;2.20;;
73534;SDS011;61792;41.110;16.708;2022-07-10T13:21:06;5.70;;;2.97;;
73534;SDS011;61792;41.110;16.708;2022-07-10T13:24:10;4.95;;;2.63;;
73534;SDS011;61792;41.110;16.708;2022-07-10T13:27:14;5.18;;;2.10;;
73534;SDS011;61792;41.110;16.708;2022-07-10T13:30:18;3.87;;;2.20;;
73534;SDS011;61792;41.110;16.708;2022-07-10T13:33:22;4.63;;;2.25;;
73534;SDS011;61792;41.110;16.708;2022-07-10T13:36:30;6.43;;;2.40;;
73534;SDS011;61792;41.110;16.708;2022-07-10T13:39:34;4.68;;;1.75;;
73534;SDS011;61792;41.110;16.708;2022-07-10T13:42:38;5.60;;;1.90;;
73534;SDS011;61792;41.110;16.708;2022-07-10T13:45:42;3.60;;;2.03;;
73534;SDS011;61792;41.110;16.708;2022-07-10T13:48:46;4.95;;;1.90;;
73534;SDS011;61792;41.110;16.708;2022-07-10T13:51:50;4.22;;;2.00;;
73534;SDS011;61792;41.110;16.708;2022-07-10T13:54:55;4.55;;;2.00;;
73534;SDS011;61792;41.110;16.708;2022-07-10T13:57:59;4.22;;;1.80;;
73534;SDS011;61792;41.110;16.708;2022-07-10T14:01:03;4.80;;;2.00;;
73534;SDS011;61792;41.110;16.708;2022-07-10T14:04:07;4.72;;;2.15;;
73534;SDS011;61792;41.110;16.708;2022-07-10T14:07:11;3.55;;;2.15;;
73534;SDS011;61792;41.110;16.708;2022-07-10T14:10:16;3.97;;;1.88;;
73534;SDS011;61792;41.110;16.708;2022-07-10T14:13:20;4.03;;;2.30;;
73534;SDS011;61792;41.110;16.708;2022-07-10T14:16:24;4.20;;;2.47;;
73534;SDS011;61792;41.110;16.708;2022-07-10T14:19:28;4.47;;;1.92;;
73534;SDS011;61792;41.110;16.708;2022-07-10T14:22:33;5.55;;;2.40;;
73534;SDS011;61792;41.110;16.708;2022-07-10T14:25:37;5.88;;;2.30;;
73534;SDS011;61792;41.110;16.708;2022-07-10T14:28:40;4.97;;;2.28;;
73534;SDS011;61792;41.110;16.708;2022-07-10T14:31:46;4.47;;;2.10;;
73534;SDS011;61792;41.110;16.708;2022-07-10T14:34:58;4.10;;;2.30;;
73534;SDS011;61792;41.110;16.708;2022-07-10T14:38:02;7.15;;;1.70;;
73534;SDS011;61792;41.110;16.708;2022-07-10T14:41:06;4.15;;;2.25;;
73534;SDS011;61792;41.110;16.708;2022-07-10T14:44:10;6.40;;;2.60;;
73534;SDS011;61792;41.110;16.708;2022-07-10T14:47:13;5.07;;;2.07;;
73534;SDS011;61792;41.110;16.708;2022-07-10T14:50:18;5.03;;;2.45;;
73534;SDS011;61792;41.110;16.708;2022-07-10T14:53:22;4.53;;;2.20;;
73534;SDS011;61792;41.110;16.708;2022-07-10T14:56:26;5.05;;;2.03;;
73534;SDS011;61792;41.110;16.708;2022-07-10T14:59:29;6.55;;;3.00;;
73534;SDS011;61792;41.110;16.708;2022-07-10T15:02:33;4.73;;;2.70;;
73534;SDS011;61792;41.110;16.708;2022-07-10T15:05:37;4.40;;;2.20;;
73534;SDS011;61792;41.110;16.708;2022-07-10T15:08:40;4.47;;;2.30;;
73534;SDS011;61792;41.110;16.708;2022-07-10T15:11:44;5.32;;;2.05;;
73534;SDS011;61792;41.110;16.708;2022-07-10T15:18:45;3.90;;;2.17;;
73534;SDS011;61792;41.110;16.708;2022-07-10T15:21:49;4.65;;;1.92;;
73534;SDS011;61792;41.110;16.708;2022-07-10T15:24:53;3.83;;;2.10;;
73534;SDS011;61792;41.110;16.708;2022-07-10T15:27:57;5.55;;;2.30;;
73534;SDS011;61792;41.110;16.708;2022-07-10T15:31:01;4.90;;;2.35;;
73534;SDS011;61792;41.110;16.708;2022-07-10T15:34:08;5.97;;;2.00;;
73534;SDS011;61792;41.110;16.708;2022-07-10T15:37:13;4.43;;;2.10;;
73534;SDS011;61792;41.110;16.708;2022-07-10T15:40:17;4.50;;;2.30;;
73534;SDS011;61792;41.110;16.708;2022-07-10T15:43:21;6.13;;;2.30;;
73534;SDS011;61792;41.110;16.708;2022-07-10T15:46:25;4.38;;;2.33;;
73534;SDS011;61792;41.110;16.708;2022-07-10T15:49:29;4.87;;;2.20;;
73534;SDS011;61792;41.110;16.708;2022-07-10T15:52:33;4.90;;;2.20;;
73534;SDS011;61792;41.110;16.708;2022-07-10T15:55:37;5.65;;;1.90;;
73534;SDS011;61792;41.110;16.708;2022-07-10T15:58:40;4.38;;;2.20;;
73534;SDS011;61792;41.110;16.708;2022-07-10T16:01:45;7.43;;;2.03;;
73534;SDS011;61792;41.110;16.708;2022-07-10T16:04:49;5.17;;;1.73;;
73534;SDS011;61792;41.110;16.708;2022-07-10T16:07:53;5.93;;;2.10;;
73534;SDS011;61792;41.110;16.708;2022-07-10T16:10:57;5.75;;;2.10;;
73534;SDS011;61792;41.110;16.708;2022-07-10T16:14:01;5.22;;;2.05;;
73534;SDS011;61792;41.110;16.708;2022-07-10T16:17:05;5.28;;;2.00;;
73534;SDS011;61792;41.110;16.708;2022-07-10T16:20:09;6.70;;;2.13;;
73534;SDS011;61792;41.110;16.708;2022-07-10T16:23:15;5.13;;;2.05;;
73534;SDS011;61792;41.110;16.708;2022-07-10T16:26:19;4.47;;;2.10;;
73534;SDS011;61792;41.110;16.708;2022-07-10T16:29:23;4.53;;;1.85;;
73534;SDS011;61792;41.110;16.708;2022-07-10T16:32:29;6.70;;;1.85;;
73534;SDS011;61792;41.110;16.708;2022-07-10T16:35:32;5.00;;;1.77;;
73534;SDS011;61792;41.110;16.708;2022-07-10T16:38:36;5.43;;;2.10;;
73534;SDS011;61792;41.110;16.708;2022-07-10T16:41:40;5.60;;;2.00;;
73534;SDS011;61792;41.110;16.708;2022-07-10T16:44:44;4.80;;;1.67;;
73534;SDS011;61792;41.110;16.708;2022-07-10T16:47:48;4.22;;;1.70;;
73534;SDS011;61792;41.110;16.708;2022-07-10T16:50:52;4.80;;;2.03;;
73534;SDS011;61792;41.110;16.708;2022-07-10T16:53:57;4.60;;;1.77;;
73534;SDS011;61792;41.110;16.708;2022-07-10T16:57:02;3.80;;;1.95;;
73534;SDS011;61792;41.110;16.708;2022-07-10T17:00:10;3.42;;;1.88;;
73534;SDS011;61792;41.110;16.708;2022-07-10T17:03:15;5.18;;;1.80;;
73534;SDS011;61792;41.110;16.708;2022-07-10T17:06:19;5.43;;;1.73;;
73534;SDS011;61792;41.110;16.708;2022-07-10T17:09:25;6.35;;;1.38;;
73534;SDS011;61792;41.110;16.708;2022-07-10T17:12:28;3.90;;;1.80;;
73534;SDS011;61792;41.110;16.708;2022-07-10T17:15:32;4.45;;;1.60;;
73534;SDS011;61792;41.110;16.708;2022-07-10T17:18:35;6.20;;;1.60;;
73534;SDS011;61792;41.110;16.708;2022-07-10T17:21:40;5.13;;;1.50;;
73534;SDS011;61792;41.110;16.708;2022-07-10T17:24:44;5.45;;;1.25;;
73534;SDS011;61792;41.110;16.708;2022-07-10T17:27:48;4.65;;;1.60;;
73534;SDS011;61792;41.110;16.708;2022-07-10T17:30:53;6.38;;;1.95;;
73534;SDS011;61792;41.110;16.708;2022-07-10T17:33:56;4.30;;;1.80;;
73534;SDS011;61792;41.110;16.708;2022-07-10T17:37:00;4.47;;;1.60;;
73534;SDS011;61792;41.110;16.708;2022-07-10T17:40:04;6.28;;;1.75;;
73534;SDS011;61792;41.110;16.708;2022-07-10T17:43:09;4.45;;;1.50;;
73534;SDS011;61792;41.110;16.708;2022-07-10T17:49:56;4.47;;;2.10;;
73534;SDS011;61792;41.110;16.708;2022-07-10T17:53:00;3.87;;;1.80;;
73534;SDS011;61792;41.110;16.708;2022-07-10T17:56:04;4.97;;;1.67;;
73534;SDS011;61792;41.110;16.708;2022-07-10T17:59:08;6.07;;;1.63;;
73534;SDS011;61792;41.110;16.708;2022-07-10T18:02:12;4.03;;;1.52;;
73534;SDS011;61792;41.110;16.708;2022-07-10T18:05:16;3.90;;;1.80;;
73534;SDS011;61792;41.110;16.708;2022-07-10T18:08:20;6.80;;;1.80;;
73534;SDS011;61792;41.110;16.708;2022-07-10T18:11:27;4.95;;;1.60;;
73534;SDS011;61792;41.110;16.708;2022-07-10T18:14:30;4.28;;;1.52;;
73534;SDS011;61792;41.110;16.708;2022-07-10T18:17:34;5.28;;;1.75;;
73534;SDS011;61792;41.110;16.708;2022-07-10T18:20:39;5.65;;;1.70;;
73534;SDS011;61792;41.110;16.708;2022-07-10T18:23:42;6.30;;;1.63;;
73534;SDS011;61792;41.110;16.708;2022-07-10T18:26:47;4.18;;;1.73;;
73534;SDS011;61792;41.110;16.708;2022-07-10T18:29:51;5.00;;;1.80;;
73534;SDS011;61792;41.110;16.708;2022-07-10T18:32:55;6.13;;;1.65;;
73534;SDS011;61792;41.110;16.708;2022-07-10T18:36:17;4.53;;;1.85;;
73534;SDS011;61792;41.110;16.708;2022-07-10T18:39:21;4.63;;;2.07;;
73534;SDS011;61792;41.110;16.708;2022-07-10T18:42:25;4.65;;;1.33;;
73534;SDS011;61792;41.110;16.708;2022-07-10T18:45:29;4.55;;;1.33;;
73534;SDS011;61792;41.110;16.708;2022-07-10T18:48:33;3.88;;;1.58;;
73534;SDS011;61792;41.110;16.708;2022-07-10T18:51:38;4.47;;;1.55;;
73534;SDS011;61792;41.110;16.708;2022-07-10T18:54:42;4.23;;;1.40;;